sensor_id;sensor_type;location;lat;lon;timestamp;pressure;altitude;pressure_sealevel;temperature;humidity
71974;BME280;59840;52.122;5.404;2023-09-08T00:01:45;101846.00;;;16.60;100.00
71974;BME280;59840;52.122;5.404;2023-09-08T00:04:12;101845.19;;;16.54;100.00
71974;BME280;59840;52.122;5.404;2023-09-08T00:06:39;101840.56;;;16.39;100.00
71974;BME280;59840;52.122;5.404;2023-09-08T00:09:06;101846.44;;;16.41;100.00
71974;BME280;59840;52.122;5.404;2023-09-08T00:11:33;101839.31;;;16.52;100.00
71974;BME280;59840;52.122;5.404;2023-09-08T00:14:00;101839.84;;;16.54;100.00
71974;BME280;59840;52.122;5.404;2023-09-08T00:16:27;101830.56;;;16.62;100.00
71974;BME280;59840;52.122;5.404;2023-09-08T00:18:56;101832.91;;;16.53;100.00
71974;BME280;59840;52.122;5.404;2023-09-08T00:21:26;101835.47;;;16.28;100.00
71974;BME280;59840;52.122;5.404;2023-09-08T00:23:53;101838.03;;;16.18;100.00
71974;BME280;59840;52.122;5.404;2023-09-08T00:26:20;101840.72;;;16.18;100.00
71974;BME280;59840;52.122;5.404;2023-09-08T00:28:47;101841.19;;;16.09;100.00
71974;BME280;59840;52.122;5.404;2023-09-08T00:31:13;101843.31;;;16.07;100.00
71974;BME280;59840;52.122;5.404;2023-09-08T00:33:40;101844.41;;;16.12;100.00
71974;BME280;59840;52.122;5.404;2023-09-08T00:36:09;101846.31;;;16.21;100.00
71974;BME280;59840;52.122;5.404;2023-09-08T00:38:36;101840.50;;;16.24;100.00
71974;BME280;59840;52.122;5.404;2023-09-08T00:41:04;101838.59;;;16.20;100.00
71974;BME280;59840;52.122;5.404;2023-09-08T00:43:31;101839.63;;;16.14;100.00
71974;BME280;59840;52.122;5.404;2023-09-08T00:45:58;101846.44;;;15.99;100.00
71974;BME280;59840;52.122;5.404;2023-09-08T00:48:26;101838.41;;;15.94;100.00
71974;BME280;59840;52.122;5.404;2023-09-08T00:50:52;101847.97;;;15.90;100.00
71974;BME280;59840;52.122;5.404;2023-09-08T00:53:19;101841.00;;;15.84;100.00
71974;BME280;59840;52.122;5.404;2023-09-08T00:55:47;101841.31;;;15.88;100.00
71974;BME280;59840;52.122;5.404;2023-09-08T00:58:14;101839.19;;;15.90;100.00
71974;BME280;59840;52.122;5.404;2023-09-08T01:00:41;101835.75;;;15.94;100.00
71974;BME280;59840;52.122;5.404;2023-09-08T01:03:07;101839.88;;;16.12;100.00
71974;BME280;59840;52.122;5.404;2023-09-08T01:05:34;101834.59;;;16.17;100.00
71974;BME280;59840;52.122;5.404;2023-09-08T01:08:02;101829.56;;;16.21;100.00
71974;BME280;59840;52.122;5.404;2023-09-08T01:10:29;101824.69;;;16.13;100.00
71974;BME280;59840;52.122;5.404;2023-09-08T01:12:56;101819.25;;;15.97;100.00
71974;BME280;59840;52.122;5.404;2023-09-08T01:15:23;101825.34;;;15.88;100.00
71974;BME280;59840;52.122;5.404;2023-09-08T01:17:49;101826.91;;;15.84;100.00
71974;BME280;59840;52.122;5.404;2023-09-08T01:20:23;101826.66;;;15.85;100.00
71974;BME280;59840;52.122;5.404;2023-09-08T01:23:19;101834.88;;;15.84;100.00
71974;BME280;59840;52.122;5.404;2023-09-08T01:25:54;101828.47;;;15.80;100.00
71974;BME280;59840;52.122;5.404;2023-09-08T01:28:21;101832.97;;;15.79;100.00
71974;BME280;59840;52.122;5.404;2023-09-08T01:30:50;101832.19;;;15.79;100.00
71974;BME280;59840;52.122;5.404;2023-09-08T01:33:18;101829.28;;;15.80;100.00
71974;BME280;59840;52.122;5.404;2023-09-08T01:35:45;101824.25;;;15.84;100.00
71974;BME280;59840;52.122;5.404;2023-09-08T01:38:11;101834.59;;;15.80;100.00
71974;BME280;59840;52.122;5.404;2023-09-08T01:40:38;101825.75;;;15.74;100.00
71974;BME280;59840;52.122;5.404;2023-09-08T01:43:05;101834.59;;;15.80;100.00
71974;BME280;59840;52.122;5.404;2023-09-08T01:45:31;101839.41;;;15.83;100.00
71974;BME280;59840;52.122;5.404;2023-09-08T01:47:58;101832.38;;;15.72;100.00
71974;BME280;59840;52.122;5.404;2023-09-08T01:50:24;101828.06;;;15.66;100.00
71974;BME280;59840;52.122;5.404;2023-09-08T01:52:51;101828.84;;;15.61;100.00
71974;BME280;59840;52.122;5.404;2023-09-08T01:55:18;101829.03;;;15.55;100.00
71974;BME280;59840;52.122;5.404;2023-09-08T01:57:44;101831.25;;;15.63;100.00
71974;BME280;59840;52.122;5.404;2023-09-08T02:00:13;101833.16;;;15.67;100.00
71974;BME280;59840;52.122;5.404;2023-09-08T02:02:39;101822.19;;;15.59;100.00
71974;BME280;59840;52.122;5.404;2023-09-08T02:05:07;101831.59;;;15.45;100.00
71974;BME280;59840;52.122;5.404;2023-09-08T02:07:34;101829.63;;;15.35;100.00
71974;BME280;59840;52.122;5.404;2023-09-08T02:10:01;101827.78;;;15.35;100.00
71974;BME280;59840;52.122;5.404;2023-09-08T02:12:28;101832.09;;;15.41;100.00
71974;BME280;59840;52.122;5.404;2023-09-08T02:14:54;101828.69;;;15.46;100.00
71974;BME280;59840;52.122;5.404;2023-09-08T02:17:21;101821.47;;;15.41;100.00
71974;BME280;59840;52.122;5.404;2023-09-08T02:19:47;101831.09;;;15.48;100.00
71974;BME280;59840;52.122;5.404;2023-09-08T02:22:14;101827.63;;;15.47;100.00
71974;BME280;59840;52.122;5.404;2023-09-08T02:24:40;101823.88;;;15.43;100.00
71974;BME280;59840;52.122;5.404;2023-09-08T02:27:07;101819.41;;;15.49;100.00
71974;BME280;59840;52.122;5.404;2023-09-08T02:29:34;101822.06;;;15.49;100.00
71974;BME280;59840;52.122;5.404;2023-09-08T02:32:01;101818.44;;;15.60;100.00
71974;BME280;59840;52.122;5.404;2023-09-08T02:34:28;101820.59;;;15.63;100.00
71974;BME280;59840;52.122;5.404;2023-09-08T02:36:55;101815.28;;;15.36;100.00
71974;BME280;59840;52.122;5.404;2023-09-08T02:39:21;101817.91;;;15.31;100.00
71974;BME280;59840;52.122;5.404;2023-09-08T02:41:50;101815.97;;;15.21;100.00
71974;BME280;59840;52.122;5.404;2023-09-08T02:44:16;101818.25;;;15.13;100.00
71974;BME280;59840;52.122;5.404;2023-09-08T02:46:43;101819.06;;;15.13;100.00
71974;BME280;59840;52.122;5.404;2023-09-08T02:49:10;101808.94;;;15.10;100.00
71974;BME280;59840;52.122;5.404;2023-09-08T02:51:36;101822.97;;;15.05;100.00
71974;BME280;59840;52.122;5.404;2023-09-08T02:54:03;101822.72;;;15.07;100.00
71974;BME280;59840;52.122;5.404;2023-09-08T02:56:29;101823.97;;;14.99;100.00
71974;BME280;59840;52.122;5.404;2023-09-08T02:58:56;101826.00;;;14.92;100.00
71974;BME280;59840;52.122;5.404;2023-09-08T03:01:23;101826.53;;;14.89;100.00
71974;BME280;59840;52.122;5.404;2023-09-08T03:03:49;101824.13;;;14.88;100.00
71974;BME280;59840;52.122;5.404;2023-09-08T03:06:18;101834.19;;;14.86;100.00
71974;BME280;59840;52.122;5.404;2023-09-08T03:08:45;101824.38;;;14.86;100.00
71974;BME280;59840;52.122;5.404;2023-09-08T03:11:12;101830.75;;;14.90;100.00
71974;BME280;59840;52.122;5.404;2023-09-08T03:13:39;101825.00;;;14.98;100.00
71974;BME280;59840;52.122;5.404;2023-09-08T03:16:07;101827.97;;;15.02;100.00
71974;BME280;59840;52.122;5.404;2023-09-08T03:18:35;101826.88;;;14.98;100.00
71974;BME280;59840;52.122;5.404;2023-09-08T03:21:06;101826.06;;;14.97;100.00
71974;BME280;59840;52.122;5.404;2023-09-08T03:23:42;101823.88;;;14.89;100.00
71974;BME280;59840;52.122;5.404;2023-09-08T03:26:10;101822.03;;;14.90;100.00
71974;BME280;59840;52.122;5.404;2023-09-08T03:28:37;101820.28;;;14.79;100.00
71974;BME280;59840;52.122;5.404;2023-09-08T03:31:05;101814.09;;;14.73;100.00
71974;BME280;59840;52.122;5.404;2023-09-08T03:33:32;101809.59;;;14.73;100.00
71974;BME280;59840;52.122;5.404;2023-09-08T03:35:59;101804.16;;;14.85;100.00
71974;BME280;59840;52.122;5.404;2023-09-08T03:38:26;101803.09;;;14.86;100.00
71974;BME280;59840;52.122;5.404;2023-09-08T03:40:53;101804.84;;;14.75;100.00
71974;BME280;59840;52.122;5.404;2023-09-08T03:43:19;101811.06;;;14.64;100.00
71974;BME280;59840;52.122;5.404;2023-09-08T03:45:46;101804.66;;;14.60;100.00
71974;BME280;59840;52.122;5.404;2023-09-08T03:48:13;101799.66;;;14.64;100.00
71974;BME280;59840;52.122;5.404;2023-09-08T03:50:40;101803.00;;;14.54;100.00
71974;BME280;59840;52.122;5.404;2023-09-08T03:53:07;101792.16;;;14.61;100.00
71974;BME280;59840;52.122;5.404;2023-09-08T03:55:34;101798.22;;;14.56;100.00
71974;BME280;59840;52.122;5.404;2023-09-08T03:58:00;101803.66;;;14.66;100.00
71974;BME280;59840;52.122;5.404;2023-09-08T04:00:27;101795.25;;;14.74;100.00
71974;BME280;59840;52.122;5.404;2023-09-08T04:02:53;101799.41;;;14.65;100.00
71974;BME280;59840;52.122;5.404;2023-09-08T04:05:20;101797.94;;;14.53;100.00
71974;BME280;59840;52.122;5.404;2023-09-08T04:07:47;101798.66;;;14.48;100.00
71974;BME280;59840;52.122;5.404;2023-09-08T04:10:13;101799.78;;;14.52;100.00
71974;BME280;59840;52.122;5.404;2023-09-08T04:12:40;101796.50;;;14.45;100.00
71974;BME280;59840;52.122;5.404;2023-09-08T04:15:08;101796.25;;;14.47;100.00
71974;BME280;59840;52.122;5.404;2023-09-08T04:17:35;101795.38;;;14.41;100.00
71974;BME280;59840;52.122;5.404;2023-09-08T04:20:06;101799.47;;;14.49;100.00
71974;BME280;59840;52.122;5.404;2023-09-08T04:22:34;101791.06;;;14.57;100.00
71974;BME280;59840;52.122;5.404;2023-09-08T04:25:02;101793.91;;;14.50;100.00
71974;BME280;59840;52.122;5.404;2023-09-08T04:27:28;101799.88;;;14.40;100.00
71974;BME280;59840;52.122;5.404;2023-09-08T04:29:55;101799.66;;;14.42;100.00
71974;BME280;59840;52.122;5.404;2023-09-08T04:32:21;101790.69;;;14.48;100.00
71974;BME280;59840;52.122;5.404;2023-09-08T04:34:49;101793.44;;;14.53;100.00
71974;BME280;59840;52.122;5.404;2023-09-08T04:37:16;101800.53;;;14.48;100.00
71974;BME280;59840;52.122;5.404;2023-09-08T04:39:42;101797.00;;;14.42;100.00
71974;BME280;59840;52.122;5.404;2023-09-08T04:42:10;101793.75;;;14.40;100.00
71974;BME280;59840;52.122;5.404;2023-09-08T04:44:36;101789.41;;;14.34;100.00
71974;BME280;59840;52.122;5.404;2023-09-08T04:47:04;101795.06;;;14.21;100.00
71974;BME280;59840;52.122;5.404;2023-09-08T04:49:31;101797.31;;;14.29;100.00
71974;BME280;59840;52.122;5.404;2023-09-08T04:51:58;101792.00;;;14.46;100.00
71974;BME280;59840;52.122;5.404;2023-09-08T04:54:24;101794.41;;;14.47;100.00
71974;BME280;59840;52.122;5.404;2023-09-08T04:56:54;101789.47;;;14.39;100.00
71974;BME280;59840;52.122;5.404;2023-09-08T04:59:37;101793.53;;;14.41;100.00
71974;BME280;59840;52.122;5.404;2023-09-08T05:02:05;101794.72;;;14.34;100.00
71974;BME280;59840;52.122;5.404;2023-09-08T05:04:32;101800.69;;;14.24;100.00
71974;BME280;59840;52.122;5.404;2023-09-08T05:06:58;101800.22;;;14.27;100.00
71974;BME280;59840;52.122;5.404;2023-09-08T05:09:25;101797.78;;;14.26;100.00
71974;BME280;59840;52.122;5.404;2023-09-08T05:11:51;101802.69;;;14.34;100.00
71974;BME280;59840;52.122;5.404;2023-09-08T05:14:18;101794.25;;;14.37;100.00
71974;BME280;59840;52.122;5.404;2023-09-08T05:16:45;101791.81;;;14.35;100.00
71974;BME280;59840;52.122;5.404;2023-09-08T05:19:12;101794.47;;;14.35;100.00
71974;BME280;59840;52.122;5.404;2023-09-08T05:21:39;101792.50;;;14.26;100.00
71974;BME280;59840;52.122;5.404;2023-09-08T05:24:10;101789.75;;;14.21;100.00
71974;BME280;59840;52.122;5.404;2023-09-08T05:26:37;101803.56;;;14.18;100.00
71974;BME280;59840;52.122;5.404;2023-09-08T05:29:04;101798.81;;;14.20;100.00
71974;BME280;59840;52.122;5.404;2023-09-08T05:31:31;101805.16;;;14.19;100.00
71974;BME280;59840;52.122;5.404;2023-09-08T05:33:58;101800.38;;;14.21;100.00
71974;BME280;59840;52.122;5.404;2023-09-08T05:36:25;101804.16;;;14.25;100.00
71974;BME280;59840;52.122;5.404;2023-09-08T05:38:51;101808.41;;;14.26;100.00
71974;BME280;59840;52.122;5.404;2023-09-08T05:41:18;101801.00;;;14.28;100.00
71974;BME280;59840;52.122;5.404;2023-09-08T05:43:44;101808.56;;;14.36;100.00
71974;BME280;59840;52.122;5.404;2023-09-08T05:46:11;101806.47;;;14.55;100.00
71974;BME280;59840;52.122;5.404;2023-09-08T05:48:39;101806.13;;;14.73;100.00
71974;BME280;59840;52.122;5.404;2023-09-08T05:51:06;101810.28;;;14.86;100.00
71974;BME280;59840;52.122;5.404;2023-09-08T05:53:33;101823.34;;;14.92;100.00
71974;BME280;59840;52.122;5.404;2023-09-08T05:56:02;101816.72;;;14.95;100.00
71974;BME280;59840;52.122;5.404;2023-09-08T05:58:28;101821.25;;;14.94;100.00
71974;BME280;59840;52.122;5.404;2023-09-08T06:00:55;101821.31;;;14.99;100.00
71974;BME280;59840;52.122;5.404;2023-09-08T06:03:22;101820.56;;;15.04;100.00
71974;BME280;59840;52.122;5.404;2023-09-08T06:05:49;101832.84;;;15.10;100.00
71974;BME280;59840;52.122;5.404;2023-09-08T06:08:16;101818.06;;;15.19;100.00
71974;BME280;59840;52.122;5.404;2023-09-08T06:10:42;101826.63;;;15.26;100.00
71974;BME280;59840;52.122;5.404;2023-09-08T06:13:09;101827.78;;;15.35;100.00
71974;BME280;59840;52.122;5.404;2023-09-08T06:15:35;101827.88;;;15.46;100.00
71974;BME280;59840;52.122;5.404;2023-09-08T06:18:02;101826.97;;;15.57;100.00
71974;BME280;59840;52.122;5.404;2023-09-08T06:20:29;101830.75;;;15.66;100.00
71974;BME280;59840;52.122;5.404;2023-09-08T06:22:56;101829.47;;;15.73;100.00
71974;BME280;59840;52.122;5.404;2023-09-08T06:25:22;101827.91;;;15.78;100.00
71974;BME280;59840;52.122;5.404;2023-09-08T06:27:49;101833.56;;;15.86;100.00
71974;BME280;59840;52.122;5.404;2023-09-08T06:30:15;101827.25;;;15.92;100.00
71974;BME280;59840;52.122;5.404;2023-09-08T06:32:44;101828.84;;;15.98;100.00
71974;BME280;59840;52.122;5.404;2023-09-08T06:35:11;101817.72;;;16.06;100.00
71974;BME280;59840;52.122;5.404;2023-09-08T06:37:40;101826.31;;;16.14;100.00
71974;BME280;59840;52.122;5.404;2023-09-08T06:40:07;101829.81;;;16.19;100.00
71974;BME280;59840;52.122;5.404;2023-09-08T06:42:33;101837.03;;;16.29;100.00
71974;BME280;59840;52.122;5.404;2023-09-08T06:45:00;101834.94;;;16.36;100.00
71974;BME280;59840;52.122;5.404;2023-09-08T06:47:27;101840.34;;;16.46;100.00
71974;BME280;59840;52.122;5.404;2023-09-08T06:49:53;101840.94;;;16.58;100.00
71974;BME280;59840;52.122;5.404;2023-09-08T06:52:20;101837.47;;;16.58;100.00
71974;BME280;59840;52.122;5.404;2023-09-08T06:54:46;101828.72;;;16.67;100.00
71974;BME280;59840;52.122;5.404;2023-09-08T06:57:13;101838.34;;;16.73;100.00
71974;BME280;59840;52.122;5.404;2023-09-08T06:59:40;101842.41;;;16.86;100.00
71974;BME280;59840;52.122;5.404;2023-09-08T07:02:07;101843.25;;;16.97;100.00
71974;BME280;59840;52.122;5.404;2023-09-08T07:04:34;101846.97;;;17.06;100.00
71974;BME280;59840;52.122;5.404;2023-09-08T07:07:00;101841.94;;;17.15;100.00
71974;BME280;59840;52.122;5.404;2023-09-08T07:09:34;101847.84;;;17.22;100.00
71974;BME280;59840;52.122;5.404;2023-09-08T07:12:05;101843.06;;;17.29;100.00
71974;BME280;59840;52.122;5.404;2023-09-08T07:14:32;101849.72;;;17.36;100.00
71974;BME280;59840;52.122;5.404;2023-09-08T07:16:59;101841.72;;;17.47;100.00
71974;BME280;59840;52.122;5.404;2023-09-08T07:19:26;101841.75;;;17.57;100.00
71974;BME280;59840;52.122;5.404;2023-09-08T07:21:53;101846.03;;;17.68;100.00
71974;BME280;59840;52.122;5.404;2023-09-08T07:24:20;101843.91;;;17.75;100.00
71974;BME280;59840;52.122;5.404;2023-09-08T07:26:47;101848.72;;;17.88;100.00
71974;BME280;59840;52.122;5.404;2023-09-08T07:29:14;101839.34;;;17.91;100.00
71974;BME280;59840;52.122;5.404;2023-09-08T07:31:40;101843.63;;;17.97;100.00
71974;BME280;59840;52.122;5.404;2023-09-08T07:34:07;101851.34;;;18.03;100.00
71974;BME280;59840;52.122;5.404;2023-09-08T07:36:36;101850.28;;;18.09;100.00
71974;BME280;59840;52.122;5.404;2023-09-08T07:39:03;101857.75;;;18.18;100.00
71974;BME280;59840;52.122;5.404;2023-09-08T07:41:29;101859.34;;;18.24;100.00
71974;BME280;59840;52.122;5.404;2023-09-08T07:43:56;101850.25;;;18.30;100.00
71974;BME280;59840;52.122;5.404;2023-09-08T07:46:23;101862.22;;;18.37;100.00
71974;BME280;59840;52.122;5.404;2023-09-08T07:48:50;101855.53;;;18.45;100.00
71974;BME280;59840;52.122;5.404;2023-09-08T07:51:17;101855.50;;;18.55;100.00
71974;BME280;59840;52.122;5.404;2023-09-08T07:53:43;101854.44;;;18.66;100.00
71974;BME280;59840;52.122;5.404;2023-09-08T07:56:10;101854.91;;;18.73;100.00
71974;BME280;59840;52.122;5.404;2023-09-08T07:58:37;101848.72;;;18.83;100.00
71974;BME280;59840;52.122;5.404;2023-09-08T08:01:05;101840.94;;;18.92;100.00
71974;BME280;59840;52.122;5.404;2023-09-08T08:03:32;101845.19;;;18.98;100.00
71974;BME280;59840;52.122;5.404;2023-09-08T08:05:59;101846.78;;;19.04;100.00
71974;BME280;59840;52.122;5.404;2023-09-08T08:08:25;101842.41;;;19.13;100.00
71974;BME280;59840;52.122;5.404;2023-09-08T08:10:52;101843.72;;;19.21;100.00
71974;BME280;59840;52.122;5.404;2023-09-08T08:13:19;101838.88;;;19.23;100.00
71974;BME280;59840;52.122;5.404;2023-09-08T08:15:45;101844.72;;;19.30;100.00
71974;BME280;59840;52.122;5.404;2023-09-08T08:18:13;101844.94;;;19.38;100.00
71974;BME280;59840;52.122;5.404;2023-09-08T08:20:41;101842.72;;;19.46;100.00
71974;BME280;59840;52.122;5.404;2023-09-08T08:23:07;101846.16;;;19.56;100.00
71974;BME280;59840;52.122;5.404;2023-09-08T08:25:34;101842.63;;;19.66;100.00
71974;BME280;59840;52.122;5.404;2023-09-08T08:28:01;101833.47;;;19.72;100.00
71974;BME280;59840;52.122;5.404;2023-09-08T08:30:28;101834.19;;;19.78;100.00
71974;BME280;59840;52.122;5.404;2023-09-08T08:32:55;101830.34;;;19.89;100.00
71974;BME280;59840;52.122;5.404;2023-09-08T08:35:21;101828.09;;;20.01;100.00
71974;BME280;59840;52.122;5.404;2023-09-08T08:37:48;101831.25;;;20.08;100.00
71974;BME280;59840;52.122;5.404;2023-09-08T08:40:15;101834.56;;;20.24;100.00
71974;BME280;59840;52.122;5.404;2023-09-08T08:42:42;101834.44;;;20.34;100.00
71974;BME280;59840;52.122;5.404;2023-09-08T08:45:09;101831.75;;;20.39;100.00
71974;BME280;59840;52.122;5.404;2023-09-08T08:47:36;101833.06;;;20.42;100.00
71974;BME280;59840;52.122;5.404;2023-09-08T08:50:03;101831.59;;;20.49;100.00
71974;BME280;59840;52.122;5.404;2023-09-08T08:52:30;101837.66;;;20.60;100.00
71974;BME280;59840;52.122;5.404;2023-09-08T08:54:57;101832.53;;;20.63;100.00
71974;BME280;59840;52.122;5.404;2023-09-08T08:57:24;101838.19;;;20.81;100.00
71974;BME280;59840;52.122;5.404;2023-09-08T08:59:54;101831.81;;;20.77;100.00
71974;BME280;59840;52.122;5.404;2023-09-08T09:02:21;101838.06;;;20.91;100.00
71974;BME280;59840;52.122;5.404;2023-09-08T09:04:48;101836.50;;;21.27;99.87
71974;BME280;59840;52.122;5.404;2023-09-08T09:07:16;101840.69;;;21.33;99.63
71974;BME280;59840;52.122;5.404;2023-09-08T09:09:44;101831.47;;;21.39;99.13
71974;BME280;59840;52.122;5.404;2023-09-08T09:12:11;101836.06;;;21.39;98.58
71974;BME280;59840;52.122;5.404;2023-09-08T09:14:38;101838.38;;;21.46;98.93
71974;BME280;59840;52.122;5.404;2023-09-08T09:17:04;101840.75;;;21.47;99.21
71974;BME280;59840;52.122;5.404;2023-09-08T09:19:36;101841.84;;;21.46;99.42
71974;BME280;59840;52.122;5.404;2023-09-08T09:22:03;101837.38;;;21.55;98.65
71974;BME280;59840;52.122;5.404;2023-09-08T09:24:38;101843.47;;;21.61;99.24
71974;BME280;59840;52.122;5.404;2023-09-08T09:27:07;101835.91;;;21.63;98.52
71974;BME280;59840;52.122;5.404;2023-09-08T09:29:47;101832.50;;;21.76;98.58
71974;BME280;59840;52.122;5.404;2023-09-08T09:32:15;101831.78;;;21.84;97.67
71974;BME280;59840;52.122;5.404;2023-09-08T09:34:49;101829.50;;;21.91;98.63
71974;BME280;59840;52.122;5.404;2023-09-08T09:37:23;101831.69;;;21.89;98.27
71974;BME280;59840;52.122;5.404;2023-09-08T09:39:52;101838.28;;;21.97;96.62
71974;BME280;59840;52.122;5.404;2023-09-08T09:42:19;101843.31;;;22.03;95.61
71974;BME280;59840;52.122;5.404;2023-09-08T09:44:48;101841.03;;;22.11;95.06
71974;BME280;59840;52.122;5.404;2023-09-08T09:47:16;101838.25;;;22.16;94.18
71974;BME280;59840;52.122;5.404;2023-09-08T09:49:46;101839.84;;;22.17;95.29
71974;BME280;59840;52.122;5.404;2023-09-08T09:52:14;101837.63;;;22.19;96.12
71974;BME280;59840;52.122;5.404;2023-09-08T09:54:42;101842.91;;;22.24;95.59
71974;BME280;59840;52.122;5.404;2023-09-08T09:57:13;101837.44;;;22.29;95.28
71974;BME280;59840;52.122;5.404;2023-09-08T09:59:42;101843.81;;;22.33;96.64
71974;BME280;59840;52.122;5.404;2023-09-08T10:02:13;101836.75;;;22.37;95.42
71974;BME280;59840;52.122;5.404;2023-09-08T10:04:41;101836.25;;;22.49;95.78
71974;BME280;59840;52.122;5.404;2023-09-08T10:07:08;101835.34;;;22.53;96.27
71974;BME280;59840;52.122;5.404;2023-09-08T10:09:37;101833.63;;;22.57;96.31
71974;BME280;59840;52.122;5.404;2023-09-08T10:12:05;101836.22;;;22.62;95.58
71974;BME280;59840;52.122;5.404;2023-09-08T10:14:35;101833.03;;;22.74;94.74
71974;BME280;59840;52.122;5.404;2023-09-08T10:17:05;101826.97;;;22.82;93.96
71974;BME280;59840;52.122;5.404;2023-09-08T10:19:33;101830.31;;;22.88;93.26
71974;BME280;59840;52.122;5.404;2023-09-08T10:22:12;101829.91;;;22.94;93.53
71974;BME280;59840;52.122;5.404;2023-09-08T10:24:43;101827.13;;;22.99;92.58
71974;BME280;59840;52.122;5.404;2023-09-08T10:27:12;101825.72;;;23.02;91.90
71974;BME280;59840;52.122;5.404;2023-09-08T10:29:39;101827.69;;;23.10;93.27
71974;BME280;59840;52.122;5.404;2023-09-08T10:32:08;101819.81;;;23.14;93.06
71974;BME280;59840;52.122;5.404;2023-09-08T10:34:36;101822.19;;;23.15;94.18
71974;BME280;59840;52.122;5.404;2023-09-08T10:37:18;101825.22;;;23.22;93.88
71974;BME280;59840;52.122;5.404;2023-09-08T10:39:45;101817.66;;;23.24;94.40
71974;BME280;59840;52.122;5.404;2023-09-08T10:47:14;101813.56;;;23.49;92.77
71974;BME280;59840;52.122;5.404;2023-09-08T10:49:41;101805.22;;;23.59;92.64
71974;BME280;59840;52.122;5.404;2023-09-08T10:52:12;101814.59;;;23.62;92.51
71974;BME280;59840;52.122;5.404;2023-09-08T10:54:48;101808.47;;;23.70;91.09
71974;BME280;59840;52.122;5.404;2023-09-08T10:57:16;101808.56;;;23.87;94.24
71974;BME280;59840;52.122;5.404;2023-09-08T11:00:01;101812.50;;;23.81;91.25
71974;BME280;59840;52.122;5.404;2023-09-08T11:02:36;101808.38;;;23.84;91.66
71974;BME280;59840;52.122;5.404;2023-09-08T11:05:10;101816.03;;;23.90;91.47
71974;BME280;59840;52.122;5.404;2023-09-08T11:07:38;101818.75;;;23.99;90.46
71974;BME280;59840;52.122;5.404;2023-09-08T11:10:06;101817.56;;;24.14;91.50
71974;BME280;59840;52.122;5.404;2023-09-08T11:12:33;101815.06;;;24.26;91.06
71974;BME280;59840;52.122;5.404;2023-09-08T11:15:02;101814.13;;;24.30;92.38
71974;BME280;59840;52.122;5.404;2023-09-08T11:17:32;101811.59;;;24.34;92.28
71974;BME280;59840;52.122;5.404;2023-09-08T11:19:58;101810.19;;;24.36;90.25
71974;BME280;59840;52.122;5.404;2023-09-08T11:22:25;101803.38;;;24.39;89.48
71974;BME280;59840;52.122;5.404;2023-09-08T11:24:53;101815.75;;;24.40;88.51
71974;BME280;59840;52.122;5.404;2023-09-08T11:27:23;101812.63;;;24.55;89.43
71974;BME280;59840;52.122;5.404;2023-09-08T11:29:50;101808.97;;;24.60;88.29
71974;BME280;59840;52.122;5.404;2023-09-08T11:32:17;101813.88;;;24.66;87.20
71974;BME280;59840;52.122;5.404;2023-09-08T11:34:44;101814.56;;;24.81;90.30
71974;BME280;59840;52.122;5.404;2023-09-08T11:37:11;101814.88;;;24.88;85.89
71974;BME280;59840;52.122;5.404;2023-09-08T11:39:39;101819.81;;;24.94;88.52
71974;BME280;59840;52.122;5.404;2023-09-08T11:42:07;101816.00;;;24.95;85.83
71974;BME280;59840;52.122;5.404;2023-09-08T11:44:35;101823.63;;;25.02;84.30
71974;BME280;59840;52.122;5.404;2023-09-08T11:47:03;101816.81;;;25.13;84.40
71974;BME280;59840;52.122;5.404;2023-09-08T11:49:35;101814.09;;;25.13;87.88
71974;BME280;59840;52.122;5.404;2023-09-08T11:52:02;101817.44;;;25.19;86.88
71974;BME280;59840;52.122;5.404;2023-09-08T11:54:31;101808.06;;;25.25;87.89
71974;BME280;59840;52.122;5.404;2023-09-08T11:57:00;101811.88;;;25.24;89.27
71974;BME280;59840;52.122;5.404;2023-09-08T11:59:28;101817.28;;;25.24;91.39
71974;BME280;59840;52.122;5.404;2023-09-08T12:01:56;101809.19;;;25.24;90.49
71974;BME280;59840;52.122;5.404;2023-09-08T12:04:23;101806.63;;;25.27;88.88
71974;BME280;59840;52.122;5.404;2023-09-08T12:06:52;101803.56;;;25.37;89.70
71974;BME280;59840;52.122;5.404;2023-09-08T12:09:21;101812.16;;;25.31;89.80
71974;BME280;59840;52.122;5.404;2023-09-08T12:11:48;101803.94;;;25.27;89.51
71974;BME280;59840;52.122;5.404;2023-09-08T12:14:15;101801.53;;;25.34;88.05
71974;BME280;59840;52.122;5.404;2023-09-08T12:16:43;101802.00;;;25.36;86.20
71974;BME280;59840;52.122;5.404;2023-09-08T12:19:29;101810.56;;;25.38;86.07
71974;BME280;59840;52.122;5.404;2023-09-08T12:22:01;101807.22;;;25.42;85.78
71974;BME280;59840;52.122;5.404;2023-09-08T12:27:23;101805.00;;;25.52;85.87
71974;BME280;59840;52.122;5.404;2023-09-08T12:29:54;101802.13;;;25.57;85.89
71974;BME280;59840;52.122;5.404;2023-09-08T12:32:22;101798.78;;;25.60;81.13
71974;BME280;59840;52.122;5.404;2023-09-08T12:34:48;101802.75;;;25.63;83.56
71974;BME280;59840;52.122;5.404;2023-09-08T12:37:19;101798.75;;;25.69;85.77
71974;BME280;59840;52.122;5.404;2023-09-08T12:39:46;101794.28;;;25.73;83.04
71974;BME280;59840;52.122;5.404;2023-09-08T12:42:12;101798.13;;;25.72;81.99
71974;BME280;59840;52.122;5.404;2023-09-08T12:44:39;101791.59;;;25.73;83.37
71974;BME280;59840;52.122;5.404;2023-09-08T12:47:09;101794.28;;;25.73;82.52
71974;BME280;59840;52.122;5.404;2023-09-08T12:49:36;101797.16;;;25.77;82.72
71974;BME280;59840;52.122;5.404;2023-09-08T12:52:03;101798.09;;;25.81;81.54
71974;BME280;59840;52.122;5.404;2023-09-08T12:54:29;101785.50;;;25.85;81.35